Decoded Metar for KGAD (GADSDEN MUNI in AL, USA) (IATA:GAD) | Meteo·Mobile Aviation Weather
aviador You're here:

KGAD Decoded Metar

GADSDEN MUNI in AL, USA
Report Time2018-09-24 06:56:00
UTC Time2018-09-24 07:58:02
Flight Rules vfr VFR
WindCalm
Visibility9999 m
Phenomena:N/A
Clouds:Broken 055 Hf
Ceiling5,500 ft
Temp22°C (ISA +8)
Dew Point22°C (100% RH)
QNH1017 hPa
Density Alt1,729 ft
Elevation568 ft
Report Wrong Elevation
Raw Report
METAR KGAD 240656Z AUTO 00000KT 10SM BKN055 22/22 A3003 RMK AO2 SLP168
T02220222=

Extra information for KGAD:More info

Metar Taf Metar & Taf Last 4 Metars F.Rules Stats Wind Profile Meteogram Temp Stats Airport Information Weather charts Add Link Nearby VenuesMetar ALERT Operation Metar Decoded Social comments

AIRNAV info for KGAD